createdAt,value
2023-03-21T00:00:56.192Z,3.67
2023-03-21T00:03:25.128Z,3.37
2023-03-21T00:05:53.935Z,3.83
2023-03-21T00:08:22.867Z,4.10
2023-03-21T00:10:59.305Z,4.20
2023-03-21T00:13:32.632Z,4.33
2023-03-21T00:16:15.464Z,4.33
2023-03-21T00:18:52.648Z,5.13
2023-03-21T00:21:41.046Z,5.10
2023-03-21T00:24:10.985Z,4.40
2023-03-21T00:26:40.568Z,4.13
2023-03-21T00:29:08.386Z,4.37
2023-03-21T00:31:36.521Z,3.30
2023-03-21T00:34:04.567Z,3.50
2023-03-21T00:36:32.894Z,4.27
2023-03-21T00:39:01.906Z,3.37
2023-03-21T00:41:45.092Z,3.90
2023-03-21T00:44:15.938Z,3.27
2023-03-21T00:46:54.566Z,4.27
2023-03-21T00:49:33.801Z,5.03
2023-03-21T00:52:14.753Z,4.03
2023-03-21T00:54:44.949Z,4.53
2023-03-21T00:57:12.916Z,4.70
2023-03-21T00:59:42.268Z,4.33
2023-03-21T01:02:15.165Z,3.70
2023-03-21T01:04:43.110Z,4.00
2023-03-21T01:07:11.084Z,6.63
2023-03-21T01:09:39.967Z,4.27
2023-03-21T01:12:07.984Z,4.30
2023-03-21T01:14:35.892Z,5.13
2023-03-21T01:17:05.959Z,4.60
2023-03-21T01:19:50.277Z,4.83
2023-03-21T01:22:19.587Z,5.03
2023-03-21T01:24:55.044Z,6.33
2023-03-21T01:27:24.847Z,4.33
2023-03-21T01:29:52.679Z,4.63
2023-03-21T01:32:21.919Z,4.07
2023-03-21T01:34:50.008Z,4.27
2023-03-21T01:37:17.935Z,5.93
2023-03-21T01:39:45.796Z,4.60
2023-03-21T01:42:15.684Z,4.53
2023-03-21T01:44:54.210Z,4.67
2023-03-21T01:47:23.619Z,4.60
2023-03-21T01:49:54.080Z,6.33
2023-03-21T01:52:36.588Z,6.00
2023-03-21T01:55:11.976Z,5.63
2023-03-21T01:58:02.094Z,7.03
2023-03-21T02:00:34.269Z,7.70
2023-03-21T02:03:15.182Z,5.67
2023-03-21T02:05:54.934Z,7.20
2023-03-21T02:08:38.099Z,5.97
2023-03-21T02:11:08.016Z,5.67
2023-03-21T02:13:36.791Z,4.53
2023-03-21T02:16:13.763Z,5.30
2023-03-21T02:18:52.075Z,5.93
2023-03-21T02:21:51.093Z,4.40
2023-03-21T02:24:59.644Z,5.43
2023-03-21T02:27:35.804Z,4.83
2023-03-21T02:30:50.903Z,4.57
2023-03-21T02:33:53.046Z,6.13
2023-03-21T02:36:29.155Z,5.13
2023-03-21T02:39:08.621Z,5.70
2023-03-21T02:41:48.505Z,5.33
2023-03-21T02:44:24.092Z,5.43
2023-03-21T02:47:05.256Z,4.80
2023-03-21T02:49:43.030Z,5.87
2023-03-21T02:52:25.561Z,5.13
2023-03-21T02:54:59.679Z,4.83
2023-03-21T02:57:40.062Z,4.97
2023-03-21T03:00:17.089Z,5.03
2023-03-21T03:02:47.566Z,5.07
2023-03-21T03:05:21.517Z,5.33
2023-03-21T03:08:05.714Z,5.67
2023-03-21T03:10:45.279Z,5.37
2023-03-21T03:13:22.913Z,6.90
2023-03-21T03:16:03.201Z,6.77
2023-03-21T03:18:40.866Z,8.23
2023-03-21T03:21:18.041Z,7.63
2023-03-21T03:23:49.985Z,10.03
2023-03-21T03:26:26.525Z,7.23
2023-03-21T03:29:01.669Z,7.40
2023-03-21T03:31:34.588Z,6.17
2023-03-21T03:34:07.725Z,6.03
2023-03-21T03:36:40.854Z,5.63
2023-03-21T03:39:11.795Z,5.07
2023-03-21T03:42:12.701Z,5.87
2023-03-21T03:44:34.980Z,5.63
2023-03-21T03:47:07.259Z,6.00
2023-03-21T03:49:39.843Z,4.33
2023-03-21T03:52:14.742Z,4.67
2023-03-21T03:54:46.939Z,3.20
2023-03-21T03:57:17.256Z,4.10
2023-03-21T03:59:46.749Z,3.57
2023-03-21T04:02:17.419Z,4.43
2023-03-21T04:04:45.862Z,5.40
2023-03-21T04:07:14.624Z,4.47
2023-03-21T04:09:44.969Z,4.70
2023-03-21T04:12:13.247Z,5.93
2023-03-21T04:14:46.161Z,5.00
2023-03-21T04:17:15.892Z,5.37
2023-03-21T04:19:45.647Z,5.97
2023-03-21T04:22:14.230Z,5.07
2023-03-21T04:24:42.874Z,7.87
2023-03-21T04:27:11.047Z,6.13
2023-03-21T04:29:38.935Z,9.07
2023-03-21T04:32:16.946Z,6.17
2023-03-21T04:34:50.273Z,8.30
2023-03-21T04:37:19.202Z,7.37
2023-03-21T04:39:47.777Z,5.23
2023-03-21T04:42:16.327Z,5.53
2023-03-21T04:44:44.420Z,8.20
2023-03-21T04:47:15.977Z,8.53
2023-03-21T04:49:44.138Z,5.23
2023-03-21T04:52:12.150Z,6.83
2023-03-21T04:54:40.274Z,7.10
2023-03-21T04:57:08.337Z,6.63
2023-03-21T04:59:37.077Z,5.97
2023-03-21T05:02:05.127Z,6.43
2023-03-21T05:04:34.325Z,7.00
2023-03-21T05:07:02.438Z,5.90
2023-03-21T05:09:30.434Z,6.50
2023-03-21T05:11:58.335Z,7.07
2023-03-21T05:14:28.566Z,6.10
2023-03-21T05:16:57.709Z,5.70
2023-03-21T05:19:34.967Z,5.83
2023-03-21T05:22:06.743Z,5.33
2023-03-21T05:24:34.810Z,6.67
2023-03-21T05:27:03.325Z,5.97
2023-03-21T05:29:33.065Z,5.53
2023-03-21T05:32:02.201Z,6.67
2023-03-21T05:34:30.989Z,6.60
2023-03-21T05:36:58.882Z,6.83
2023-03-21T05:39:28.172Z,5.37
2023-03-21T05:41:56.137Z,7.27
2023-03-21T05:44:24.108Z,7.30
2023-03-21T05:46:51.965Z,7.63
2023-03-21T05:49:22.416Z,7.20
2023-03-21T05:51:50.386Z,7.33
2023-03-21T05:54:18.239Z,7.20
2023-03-21T05:56:47.500Z,7.20
2023-03-21T05:59:16.595Z,7.10
2023-03-21T06:01:44.461Z,7.00
2023-03-21T06:04:12.488Z,6.83
2023-03-21T06:06:40.584Z,8.40
2023-03-21T06:09:08.695Z,6.33
2023-03-21T06:11:39.108Z,6.50
2023-03-21T06:14:08.575Z,9.23
2023-03-21T06:16:36.488Z,8.00
2023-03-21T06:19:04.448Z,7.47
2023-03-21T06:21:32.575Z,7.47
2023-03-21T06:24:02.474Z,7.30
2023-03-21T06:26:30.460Z,6.50
2023-03-21T06:28:58.858Z,5.70
2023-03-21T06:31:28.140Z,6.97
2023-03-21T06:33:56.088Z,10.40
2023-03-21T06:36:24.240Z,6.80
2023-03-21T06:38:52.125Z,6.80
2023-03-21T06:41:20.207Z,9.07
2023-03-21T06:43:48.543Z,8.97
2023-03-21T06:46:16.409Z,9.07
2023-03-21T06:48:45.869Z,10.20
2023-03-21T06:51:14.207Z,9.83
2023-03-21T06:53:42.257Z,11.13
2023-03-21T06:56:11.871Z,10.87
2023-03-21T06:58:40.309Z,9.97
2023-03-21T07:01:08.611Z,11.30
2023-03-21T07:03:38.052Z,12.13
2023-03-21T07:06:11.746Z,11.23
2023-03-21T07:08:40.655Z,11.27
2023-03-21T07:11:09.225Z,12.03
2023-03-21T07:13:37.508Z,10.33
2023-03-21T07:16:05.903Z,12.13
2023-03-21T07:18:34.253Z,12.53
2023-03-21T07:21:18.211Z,11.70
2023-03-21T07:23:47.589Z,10.33
2023-03-21T07:26:16.361Z,9.33
2023-03-21T07:28:44.232Z,8.70
2023-03-21T07:31:16.122Z,8.53
2023-03-21T07:33:44.399Z,7.30
2023-03-21T07:36:15.533Z,5.60
2023-03-21T07:38:43.565Z,6.20
2023-03-21T07:41:11.780Z,5.67
2023-03-21T07:43:40.194Z,5.83
2023-03-21T07:46:08.195Z,4.90
2023-03-21T07:48:37.356Z,5.27
2023-03-21T07:51:06.584Z,6.77
2023-03-21T07:53:35.905Z,6.50
2023-03-21T07:56:04.418Z,7.93
2023-03-21T07:58:34.283Z,6.43
2023-03-21T08:01:02.315Z,6.00
2023-03-21T08:03:31.661Z,6.07
2023-03-21T08:06:00.563Z,6.77
2023-03-21T08:08:28.759Z,4.70
2023-03-21T08:10:58.176Z,5.43
2023-03-21T08:13:26.268Z,5.70
2023-03-21T08:15:54.298Z,5.47
2023-03-21T08:18:22.254Z,4.80
2023-03-21T08:20:53.594Z,4.77
2023-03-21T08:23:21.704Z,5.30
2023-03-21T08:25:53.417Z,4.70
2023-03-21T08:28:23.540Z,5.40
2023-03-21T08:30:51.485Z,4.93
2023-03-21T08:33:19.789Z,4.57
2023-03-21T08:35:47.986Z,4.23
2023-03-21T08:38:16.126Z,3.47
2023-03-21T08:40:44.254Z,4.20
2023-03-21T08:43:14.648Z,4.27
2023-03-21T08:45:44.137Z,3.93
2023-03-21T08:48:12.279Z,5.10
2023-03-21T08:50:41.224Z,4.93
2023-03-21T08:53:09.089Z,3.80
2023-03-21T08:55:38.108Z,3.77
2023-03-21T08:58:06.981Z,3.20
2023-03-21T09:00:34.854Z,3.00
2023-03-21T09:03:05.300Z,2.53
2023-03-21T09:05:33.606Z,2.60
2023-03-21T09:08:03.625Z,2.22
2023-03-21T09:10:32.193Z,2.20
2023-03-21T09:13:00.154Z,2.25
2023-03-21T09:15:29.612Z,1.42
2023-03-21T09:17:58.919Z,1.70
2023-03-21T09:20:33.094Z,1.40
2023-03-21T09:23:02.141Z,1.83
2023-03-21T09:25:31.395Z,1.23
2023-03-21T09:28:00.372Z,1.52
2023-03-21T09:30:28.778Z,1.10
2023-03-21T09:32:58.007Z,1.20
2023-03-21T09:35:27.081Z,1.20
2023-03-21T09:37:57.631Z,1.10
2023-03-21T09:40:40.134Z,1.38
2023-03-21T09:43:25.291Z,1.20
2023-03-21T09:46:01.091Z,1.00
2023-03-21T09:48:50.602Z,0.95
2023-03-21T09:51:27.492Z,1.00
2023-03-21T09:53:58.990Z,0.95
2023-03-21T09:56:27.209Z,1.10
2023-03-21T09:58:59.749Z,1.40
2023-03-21T10:01:33.230Z,1.48
2023-03-21T10:04:04.946Z,1.10
2023-03-21T10:06:35.840Z,0.93
2023-03-21T10:09:09.479Z,0.90
2023-03-21T10:11:44.372Z,0.80
2023-03-21T10:14:19.446Z,0.90
2023-03-21T10:16:50.264Z,0.60
2023-03-21T10:19:20.806Z,0.70
2023-03-21T10:22:00.726Z,0.77
2023-03-21T10:24:34.384Z,0.65
2023-03-21T10:27:03.829Z,0.70
2023-03-21T10:29:37.314Z,0.88
2023-03-21T10:32:05.817Z,0.88
2023-03-21T10:34:38.115Z,0.45
2023-03-21T10:37:06.758Z,0.70
2023-03-21T10:39:39.104Z,0.40
2023-03-21T10:42:07.192Z,0.50
2023-03-21T10:44:37.389Z,0.47
2023-03-21T10:47:07.653Z,0.68
2023-03-21T10:49:56.536Z,0.55
2023-03-21T10:52:30.476Z,0.68
2023-03-21T10:55:13.351Z,0.50
2023-03-21T10:57:41.842Z,0.40
2023-03-21T11:00:20.819Z,0.63
2023-03-21T11:02:50.942Z,0.73
2023-03-21T11:05:25.589Z,1.13
2023-03-21T11:08:07.092Z,0.30
2023-03-21T11:10:39.081Z,0.43
2023-03-21T11:13:10.125Z,0.70
2023-03-21T11:15:49.471Z,0.75
2023-03-21T11:18:20.952Z,0.50
2023-03-21T11:20:57.778Z,0.50
2023-03-21T11:23:28.596Z,0.40
2023-03-21T11:26:00.569Z,0.40
2023-03-21T11:28:37.525Z,0.40
2023-03-21T11:31:07.201Z,0.32
2023-03-21T11:33:39.343Z,0.60
2023-03-21T11:36:26.241Z,0.70
2023-03-21T11:38:57.943Z,0.65
2023-03-21T11:41:31.490Z,0.73
2023-03-21T11:44:00.988Z,0.70
2023-03-21T11:46:30.457Z,0.35
2023-03-21T11:49:00.394Z,1.13
2023-03-21T11:51:35.740Z,1.02
2023-03-21T11:54:12.753Z,0.50
2023-03-21T11:56:45.899Z,0.57
2023-03-21T11:59:29.851Z,0.50
2023-03-21T12:02:28.023Z,0.60
2023-03-21T12:05:03.631Z,0.40
2023-03-21T12:07:48.961Z,0.40
2023-03-21T12:10:41.432Z,0.73
2023-03-21T12:13:27.839Z,0.38
2023-03-21T12:16:06.604Z,0.63
2023-03-21T12:18:53.724Z,0.57
2023-03-21T12:21:29.576Z,0.65
2023-03-21T12:24:05.024Z,0.60
2023-03-21T12:26:39.920Z,0.50
2023-03-21T12:29:35.268Z,0.50
2023-03-21T12:32:17.418Z,0.47
2023-03-21T12:35:04.064Z,0.40
2023-03-21T12:37:39.901Z,0.40
2023-03-21T12:40:18.433Z,0.50
2023-03-21T12:42:58.263Z,0.65
2023-03-21T12:45:45.803Z,0.60
2023-03-21T12:48:22.387Z,0.38
2023-03-21T12:50:53.554Z,0.70
2023-03-21T12:53:36.312Z,1.40
2023-03-21T12:56:10.370Z,0.85
2023-03-21T12:58:47.061Z,0.60
2023-03-21T13:01:19.413Z,0.60
2023-03-21T13:03:52.385Z,1.50
2023-03-21T13:06:27.423Z,0.57
2023-03-21T13:09:01.844Z,0.60
2023-03-21T13:11:32.080Z,0.68
2023-03-21T13:14:06.134Z,0.73
2023-03-21T13:16:41.966Z,0.50
2023-03-21T13:19:19.832Z,0.40
2023-03-21T13:21:53.506Z,0.40
2023-03-21T13:24:27.866Z,0.80
2023-03-21T13:27:03.212Z,0.50
2023-03-21T13:29:33.664Z,0.35
2023-03-21T13:32:11.699Z,0.40
2023-03-21T13:34:41.683Z,0.60
2023-03-21T13:37:17.143Z,0.70
2023-03-21T13:39:47.266Z,0.50
2023-03-21T13:42:24.423Z,0.35
2023-03-21T13:44:56.990Z,0.50
2023-03-21T13:47:40.857Z,0.47
2023-03-21T13:50:28.093Z,0.40
2023-03-21T13:53:12.886Z,0.47
2023-03-21T13:55:43.055Z,0.40
2023-03-21T13:58:25.285Z,0.40
2023-03-21T14:01:18.439Z,0.30
2023-03-21T14:03:48.505Z,0.50
2023-03-21T14:06:19.269Z,0.40
2023-03-21T14:08:50.986Z,0.43
2023-03-21T14:11:21.263Z,0.20
2023-03-21T14:13:51.699Z,0.50
2023-03-21T14:16:22.278Z,0.30
2023-03-21T14:18:56.367Z,0.50
2023-03-21T14:21:27.072Z,0.70
2023-03-21T14:24:02.962Z,0.82
2023-03-21T14:26:34.743Z,0.88
2023-03-21T14:29:12.381Z,0.57
2023-03-21T14:31:43.516Z,0.40
2023-03-21T14:34:15.478Z,0.50
2023-03-21T14:36:51.658Z,0.30
2023-03-21T14:39:28.886Z,0.50
2023-03-21T14:41:58.277Z,0.50
2023-03-21T14:44:28.200Z,0.70
2023-03-21T14:47:20.221Z,0.70
2023-03-21T14:50:16.065Z,0.75
2023-03-21T14:52:44.702Z,0.88
2023-03-21T14:55:17.084Z,0.60
2023-03-21T14:57:45.667Z,0.75
2023-03-21T15:00:23.002Z,1.00
2023-03-21T15:02:52.569Z,0.60
2023-03-21T15:05:27.028Z,0.60
2023-03-21T15:07:57.888Z,0.43
2023-03-21T15:10:27.583Z,0.30
2023-03-21T15:12:57.375Z,0.50
2023-03-21T15:15:27.598Z,0.70
2023-03-21T15:17:59.396Z,0.30
2023-03-21T15:20:33.127Z,0.50
2023-03-21T15:23:05.808Z,0.50
2023-03-21T15:25:36.269Z,0.60
2023-03-21T15:28:06.514Z,0.88
2023-03-21T15:30:35.407Z,0.70
2023-03-21T15:33:09.236Z,1.02
2023-03-21T15:35:41.147Z,0.47
2023-03-21T15:38:23.720Z,0.40
2023-03-21T15:40:52.133Z,0.50
2023-03-21T15:43:21.162Z,0.73
2023-03-21T15:45:50.716Z,0.80
2023-03-21T15:48:25.965Z,0.90
2023-03-21T15:51:01.307Z,0.80
2023-03-21T15:53:33.847Z,0.70
2023-03-21T15:56:06.302Z,0.80
2023-03-21T15:58:37.117Z,0.70
2023-03-21T16:01:10.104Z,0.70
2023-03-21T16:03:42.786Z,0.80
2023-03-21T16:06:20.060Z,1.00
2023-03-21T16:08:50.227Z,1.13
2023-03-21T16:11:24.493Z,0.77
2023-03-21T16:13:53.016Z,0.70
2023-03-21T16:16:24.733Z,0.68
2023-03-21T16:18:54.002Z,1.08
2023-03-21T16:21:25.032Z,1.00
2023-03-21T16:23:53.241Z,1.27
2023-03-21T16:26:23.972Z,1.17
2023-03-21T16:28:53.057Z,1.15
2023-03-21T16:31:23.210Z,0.93
2023-03-21T16:33:52.474Z,0.95
2023-03-21T16:36:22.640Z,1.10
2023-03-21T16:38:55.188Z,1.25
2023-03-21T16:41:24.178Z,1.20
2023-03-21T16:43:52.438Z,1.25
2023-03-21T16:46:22.856Z,1.58
2023-03-21T16:48:54.852Z,1.40
2023-03-21T16:51:26.126Z,1.00
2023-03-21T16:53:55.979Z,1.98
2023-03-21T16:56:26.290Z,1.38
2023-03-21T16:58:55.934Z,0.77
2023-03-21T17:01:27.749Z,1.20
2023-03-21T17:03:55.910Z,1.10
2023-03-21T17:06:26.545Z,1.13
2023-03-21T17:08:59.271Z,1.00
2023-03-21T17:11:31.607Z,0.93
2023-03-21T17:13:59.700Z,1.00
2023-03-21T17:16:30.499Z,0.90
2023-03-21T17:19:00.477Z,1.27
2023-03-21T17:21:30.473Z,1.75
2023-03-21T17:23:59.933Z,1.70
2023-03-21T17:26:30.040Z,1.08
2023-03-21T17:28:58.510Z,1.25
2023-03-21T17:31:28.599Z,1.02
2023-03-21T17:33:58.156Z,1.30
2023-03-21T17:36:30.194Z,1.77
2023-03-21T17:38:59.887Z,1.42
2023-03-21T17:41:27.884Z,0.82
2023-03-21T17:43:57.031Z,1.27
2023-03-21T17:46:29.239Z,1.10
2023-03-21T17:48:57.587Z,1.33
2023-03-21T17:51:30.195Z,1.23
2023-03-21T17:53:59.950Z,1.10
2023-03-21T17:56:30.881Z,1.08
2023-03-21T17:59:01.709Z,1.02
2023-03-21T18:01:31.067Z,1.20
2023-03-21T18:03:59.573Z,1.15
2023-03-21T18:06:28.821Z,1.02
2023-03-21T18:08:56.644Z,1.23
2023-03-21T18:11:26.426Z,1.45
2023-03-21T18:14:06.605Z,1.43
2023-03-21T18:16:44.713Z,1.35
2023-03-21T18:19:13.463Z,1.48
2023-03-21T18:21:44.927Z,1.17
2023-03-21T18:24:14.639Z,1.13
2023-03-21T18:26:44.055Z,1.10
2023-03-21T18:30:17.427Z,1.20
2023-03-21T18:32:07.810Z,1.10
2023-03-21T18:34:38.621Z,1.20
2023-03-21T18:37:07.999Z,1.00
2023-03-21T18:39:37.235Z,1.40
2023-03-21T18:42:07.822Z,1.10
2023-03-21T18:44:46.855Z,1.30
2023-03-21T18:47:15.535Z,1.23
2023-03-21T18:52:32.203Z,1.13
2023-03-21T18:55:00.050Z,1.53
2023-03-21T18:57:36.858Z,1.57
2023-03-21T19:00:13.029Z,0.90
2023-03-21T19:02:47.889Z,1.10
2023-03-21T19:05:17.858Z,1.10
2023-03-21T19:07:46.557Z,1.10
2023-03-21T19:10:19.374Z,1.07
2023-03-21T19:12:51.728Z,1.10
2023-03-21T19:15:21.441Z,1.10
2023-03-21T19:20:44.441Z,1.43
2023-03-21T19:23:12.556Z,1.50
2023-03-21T19:25:40.500Z,1.70
2023-03-21T19:28:09.842Z,2.63
2023-03-21T19:30:39.255Z,5.10
2023-03-21T19:33:08.936Z,4.63
2023-03-21T19:35:40.813Z,3.97
2023-03-21T19:38:11.945Z,3.40
2023-03-21T19:40:41.676Z,3.80
2023-03-21T19:43:31.810Z,2.90
2023-03-21T19:46:00.937Z,3.20
2023-03-21T19:48:29.106Z,3.17
2023-03-21T19:51:26.332Z,3.03
2023-03-21T19:53:45.811Z,1.87
2023-03-21T19:56:21.860Z,3.13
2023-03-21T19:58:54.627Z,2.60
2023-03-21T20:01:22.960Z,1.97
2023-03-21T20:03:51.541Z,2.60
2023-03-21T20:06:19.730Z,2.17
2023-03-21T20:09:30.840Z,1.90
2023-03-21T20:11:36.187Z,2.00
2023-03-21T20:14:06.451Z,2.40
2023-03-21T20:16:36.626Z,2.37
2023-03-21T20:19:06.165Z,2.53
2023-03-21T20:21:45.213Z,2.50
2023-03-21T20:24:14.178Z,2.90
2023-03-21T20:26:43.986Z,2.40
2023-03-21T20:30:07.547Z,2.57
2023-03-21T20:32:02.411Z,2.40
2023-03-21T20:34:30.794Z,2.60
2023-03-21T20:36:59.302Z,2.60
2023-03-21T20:39:29.829Z,2.80
2023-03-21T20:41:59.427Z,2.73
2023-03-21T20:44:51.830Z,2.43
2023-03-21T20:47:17.942Z,3.07
2023-03-21T20:49:49.395Z,2.70
2023-03-21T20:55:07.072Z,3.20
2023-03-21T20:57:38.405Z,3.07
2023-03-21T21:00:13.722Z,2.63
2023-03-21T21:02:42.914Z,2.70
2023-03-21T21:05:25.288Z,2.70
2023-03-21T21:07:58.800Z,3.00
2023-03-21T21:10:27.754Z,2.57
2023-03-21T21:12:57.810Z,3.20
2023-03-21T21:15:27.275Z,3.23
2023-03-21T21:18:06.438Z,2.93
2023-03-21T21:20:35.868Z,2.73
2023-03-21T21:23:04.086Z,2.97
2023-03-21T21:25:34.361Z,3.50
2023-03-21T21:28:02.913Z,3.10
2023-03-21T21:30:34.030Z,3.33
2023-03-21T21:33:05.609Z,3.20
2023-03-21T21:35:35.971Z,3.67
2023-03-21T21:38:05.419Z,3.73
2023-03-21T21:40:33.418Z,3.77
2023-03-21T21:43:03.614Z,3.70
2023-03-21T21:45:32.996Z,3.80
2023-03-21T21:48:01.061Z,3.73
2023-03-21T21:50:30.298Z,4.20
2023-03-21T21:53:06.347Z,4.00
2023-03-21T21:55:35.265Z,4.17
2023-03-21T21:58:04.399Z,4.33
2023-03-21T22:00:34.452Z,4.50
2023-03-21T22:03:02.770Z,4.43
2023-03-21T22:05:32.351Z,3.67
2023-03-21T22:08:00.264Z,4.27
2023-03-21T22:10:28.541Z,4.80
2023-03-21T22:12:56.573Z,4.47
2023-03-21T22:15:24.499Z,4.43
2023-03-21T22:17:53.867Z,3.83
2023-03-21T22:20:23.312Z,4.10
2023-03-21T22:22:51.432Z,4.47
2023-03-21T22:25:19.900Z,4.00
2023-03-21T22:27:47.984Z,4.30
2023-03-21T22:30:18.686Z,4.23
2023-03-21T22:32:56.420Z,4.40
2023-03-21T22:35:33.589Z,4.23
2023-03-21T22:38:04.701Z,4.43
2023-03-21T22:40:32.790Z,4.03
2023-03-21T22:43:00.751Z,3.87
2023-03-21T22:45:28.844Z,3.80
2023-03-21T22:47:57.018Z,4.30
2023-03-21T22:50:24.993Z,3.80
2023-03-21T22:52:54.444Z,3.90
2023-03-21T22:55:22.573Z,3.60
2023-03-21T22:57:50.428Z,3.57
2023-03-21T23:00:20.280Z,3.87
2023-03-21T23:02:48.121Z,3.20
2023-03-21T23:05:16.237Z,3.37
2023-03-21T23:07:44.240Z,3.27
2023-03-21T23:10:16.356Z,3.00
2023-03-21T23:12:44.297Z,3.00
2023-03-21T23:15:12.838Z,2.80
2023-03-21T23:17:42.337Z,2.70
2023-03-21T23:20:11.058Z,3.23
2023-03-21T23:22:39.456Z,3.20
2023-03-21T23:25:08.447Z,3.03
2023-03-21T23:27:40.254Z,3.83
2023-03-21T23:30:09.942Z,3.63
2023-03-21T23:32:37.975Z,3.63
2023-03-21T23:35:09.445Z,3.70
2023-03-21T23:37:37.351Z,3.33
2023-03-21T23:40:07.088Z,3.27
2023-03-21T23:42:36.257Z,3.30
2023-03-21T23:45:06.594Z,3.77
2023-03-21T23:47:37.613Z,3.13
2023-03-21T23:50:09.992Z,3.47
2023-03-21T23:52:38.412Z,3.70
2023-03-21T23:55:07.476Z,3.20
2023-03-21T23:57:35.565Z,3.77
